Lawton Fort Sill Regional Airport Lawton US
ICAO: KLAW
IATA: LAW
Category: Medium
Scheduled Services: No

Elevation: 1110 ft
TransAlt. 18000 ft.

Airport Communications:
FORT SILL APP/DEP:120.55
ATIS:120.75
CTAF:119.9
GND:121.9
TWR:119.9
UNICOM:122.95

KLAW Zoom In..

If Map Doesn't Load, Click Here

Runways:

(A) RW 17 length 8599 ft width 150 ft
---- / hdg 171

(B) RW 35 length 8599 ft width 150 ft
ILS 109.10 / hdg 351

Location; KLAW
Day. 21 / Time. 15.44 Zulu
* Altimeter: 30.00
* Temperature: 23° c. 73.4°f.
* Wind from: 240° Speed 03 kn.
Dewpoint: 23° c.
Visibility: 2 Statute Miles.
Clouds: Broken 600 ft.
Clouds: Broken 1900 ft.
Clouds: Overcast 2700 ft.
Conditions: Rain.Conditions: Mist.

KLAW 211544Z 24003KT 2SM RA BR BKN006 BKN019 OVC027 23/23 A3000 RMK AO2 P0036 T02280228


Wind From 240°
Speed 03 kn.

 
 
jpsmedia.com for Web Design worldairports.se 2018   terms of use